Time;durP1;ratioP1;P1;durP2;ratioP2;P2;SDS_P1;SDS_P2;PMS_P1;PMS_P2;Temp;Humidity;BMP_temperature;BMP_pressure;BME280_temperature;BME280_humidity;BME280_pressure;Samples;Min_cycle;Max_cycle;Signal;HPM_P1;HPM_P2
2023/05/29 00:00:17;;;;;;;7.20;2.40;;;;;;;17.10;43.11;100468.00;4958879;28;96982;-84
2023/05/29 00:02:44;;;;;;;7.88;2.65;;;;;;;16.98;42.91;100461.63;4974084;28;97100;-84
2023/05/29 00:05:13;;;;;;;14.15;3.75;;;;;;;17.01;43.13;100469.38;4986767;28;97773;-84
2023/05/29 00:07:40;;;;;;;6.70;2.70;;;;;;;16.94;43.62;100474.19;4958591;28;101534;-84
2023/05/29 00:10:07;;;;;;;13.50;3.40;;;;;;;16.87;43.76;100458.72;4975644;28;96932;-84
2023/05/29 00:12:33;;;;;;;9.68;2.88;;;;;;;16.87;44.41;100474.63;4944954;28;97463;-84
2023/05/29 00:14:58;;;;;;;7.38;3.15;;;;;;;16.86;44.32;100472.94;4961829;28;98116;-84
2023/05/29 00:17:24;;;;;;;9.20;2.67;;;;;;;16.82;44.38;100464.31;4971541;28;101398;-84
2023/05/29 00:19:50;;;;;;;5.43;2.50;;;;;;;16.67;44.73;100450.13;4976680;28;97222;-84
2023/05/29 00:22:16;;;;;;;5.47;2.90;;;;;;;16.76;45.02;100475.28;4953231;28;97166;-84
2023/05/29 00:24:41;;;;;;;11.45;3.50;;;;;;;16.58;45.05;100453.28;4947005;28;101494;-84
2023/05/29 00:27:08;;;;;;;7.03;2.97;;;;;;;16.61;45.13;100457.53;4948620;28;101196;-84
2023/05/29 00:29:35;;;;;;;7.68;2.65;;;;;;;16.64;45.34;100467.97;4960597;28;97388;-84
2023/05/29 00:32:01;;;;;;;9.05;4.00;;;;;;;16.57;45.28;100459.50;4986654;28;96797;-84
2023/05/29 00:34:27;;;;;;;8.93;2.80;;;;;;;16.62;45.66;100476.00;4939386;28;102021;-85
2023/05/29 00:36:55;;;;;;;11.10;3.70;;;;;;;16.57;45.69;100471.91;4960886;28;101203;-84
2023/05/29 00:39:21;;;;;;;8.77;3.65;;;;;;;16.55;45.83;100472.03;4945777;28;96835;-84
2023/05/29 00:41:51;;;;;;;8.25;3.28;;;;;;;16.32;46.11;100441.50;4959564;28;97466;-84
2023/05/29 00:44:20;;;;;;;7.25;2.60;;;;;;;16.47;45.93;100468.94;4974510;28;97560;-83
2023/05/29 00:46:47;;;;;;;7.65;3.17;;;;;;;16.45;46.38;100474.31;4959899;28;101602;-84
2023/05/29 00:49:13;;;;;;;5.78;3.30;;;;;;;16.43;46.00;100470.03;4966550;28;97281;-84
2023/05/29 00:51:39;;;;;;;12.90;4.20;;;;;;;16.38;46.21;100465.00;4960935;28;96782;-84
2023/05/29 00:54:08;;;;;;;12.43;4.60;;;;;;;16.34;46.13;100465.25;4945256;28;101455;-85
2023/05/29 00:56:38;;;;;;;14.60;4.50;;;;;;;16.28;46.57;100463.78;4954373;28;98086;-84
2023/05/29 00:59:05;;;;;;;9.20;4.47;;;;;;;16.20;46.63;100448.34;4932387;28;97032;-84
2023/05/29 01:01:32;;;;;;;8.30;4.55;;;;;;;16.25;46.73;100463.97;4959686;28;97058;-84
2023/05/29 01:04:00;;;;;;;9.18;4.65;;;;;;;16.19;46.62;100464.31;4983921;28;98272;-85
2023/05/29 01:06:26;;;;;;;8.35;5.10;;;;;;;15.92;46.68;100427.81;4979030;28;98403;-85
2023/05/29 01:08:52;;;;;;;13.98;5.28;;;;;;;16.13;46.62;100468.16;4938603;28;97140;-85
2023/05/29 01:11:18;;;;;;;10.02;5.00;;;;;;;16.10;47.05;100464.81;4971390;28;96902;-84
2023/05/29 01:13:44;;;;;;;10.73;5.38;;;;;;;16.05;47.09;100468.56;4966360;28;101805;-85
2023/05/29 01:16:23;;;;;;;14.98;5.38;;;;;;;16.03;47.18;100464.31;4961934;28;100341;-85
2023/05/29 01:18:58;;;;;;;9.70;5.43;;;;;;;15.79;47.02;100438.19;4976016;28;97212;-85
2023/05/29 01:21:47;;;;;;;8.77;5.32;;;;;;;15.98;47.18;100474.28;4937427;28;96977;-84
2023/05/29 01:24:25;;;;;;;8.18;4.85;;;;;;;15.94;47.28;100475.38;4971705;28;98568;-84
2023/05/29 01:27:12;;;;;;;14.50;5.85;;;;;;;15.87;47.26;100466.91;4975519;28;98240;-84
2023/05/29 01:29:39;;;;;;;17.50;6.13;;;;;;;15.84;47.38;100456.50;4959911;28;96763;-84
2023/05/29 01:32:05;;;;;;;11.48;5.32;;;;;;;15.84;47.12;100467.94;4937397;28;96836;-85
2023/05/29 01:34:31;;;;;;;15.40;5.10;;;;;;;15.71;47.33;100453.66;4949720;28;98065;-84
2023/05/29 01:36:57;;;;;;;11.57;5.20;;;;;;;15.78;47.42;100470.91;4958428;28;100193;-84
2023/05/29 01:39:24;;;;;;;14.98;5.35;;;;;;;15.68;47.53;100452.94;4943300;28;97168;-84
2023/05/29 01:41:51;;;;;;;10.70;4.70;;;;;;;15.66;47.92;100458.28;4942601;28;96881;-85
2023/05/29 01:44:18;;;;;;;15.25;6.72;;;;;;;15.59;47.58;100438.38;4941060;28;101499;-85
2023/05/29 01:46:46;;;;;;;10.77;5.00;;;;;;;15.67;47.63;100461.78;4953729;28;101129;-85
2023/05/29 01:49:12;;;;;;;11.38;4.80;;;;;;;15.63;47.77;100454.03;4951693;28;96963;-85
2023/05/29 01:51:41;;;;;;;8.55;5.07;;;;;;;15.60;47.70;100453.34;4936712;28;96849;-86
2023/05/29 01:54:07;;;;;;;8.43;4.55;;;;;;;15.60;47.87;100464.78;4941251;28;101862;-85
2023/05/29 01:56:33;;;;;;;12.00;5.00;;;;;;;15.59;48.17;100462.19;4962397;28;97830;-85
2023/05/29 01:59:00;;;;;;;11.02;5.40;;;;;;;15.49;48.05;100458.31;4965255;28;96747;-86
2023/05/29 02:01:26;;;;;;;9.73;4.40;;;;;;;15.43;48.19;100451.56;4974859;28;96869;-87
2023/05/29 02:03:52;;;;;;;12.27;5.05;;;;;;;15.30;48.19;100424.91;4952382;28;101446;-86
2023/05/29 02:06:18;;;;;;;12.52;5.55;;;;;;;15.29;48.52;100428.47;4956279;28;100609;-86
2023/05/29 02:08:44;;;;;;;8.98;4.68;;;;;;;15.28;48.29;100442.63;4973855;28;97199;-86
2023/05/29 02:11:10;;;;;;;10.25;4.85;;;;;;;15.22;48.58;100434.19;4974476;28;96908;-86
2023/05/29 02:13:36;;;;;;;9.40;4.47;;;;;;;15.30;48.83;100453.13;4957163;28;101472;-86
2023/05/29 02:16:01;;;;;;;8.43;4.40;;;;;;;15.33;48.58;100458.25;4957203;28;101007;-86
2023/05/29 02:18:27;;;;;;;13.20;5.25;;;;;;;15.27;49.18;100448.00;4940355;28;97127;-86
2023/05/29 02:20:53;;;;;;;10.98;4.75;;;;;;;15.29;48.89;100462.00;4941941;28;97316;-86
2023/05/29 02:23:21;;;;;;;15.05;5.18;;;;;;;15.30;49.06;100455.75;4974338;28;98044;-87
2023/05/29 02:25:47;;;;;;;8.93;4.72;;;;;;;15.23;49.14;100452.59;4941679;28;101319;-86
2023/05/29 02:28:13;;;;;;;11.43;5.82;;;;;;;15.17;49.13;100459.03;4942050;28;96775;-87
2023/05/29 02:30:39;;;;;;;20.63;5.13;;;;;;;15.13;49.00;100454.00;4941194;28;96914;-86
2023/05/29 02:33:06;;;;;;;13.60;4.20;;;;;;;15.14;49.13;100456.56;4939521;28;100291;-86
2023/05/29 02:35:33;;;;;;;15.68;5.28;;;;;;;15.00;48.98;100443.19;4950461;28;98047;-86
2023/05/29 02:37:59;;;;;;;18.00;5.38;;;;;;;15.05;49.36;100462.31;4968239;28;96750;-86
2023/05/29 02:40:24;;;;;;;9.85;5.07;;;;;;;14.71;49.23;100403.22;4941099;28;97071;-86
2023/05/29 02:42:50;;;;;;;9.57;4.50;;;;;;;15.01;49.10;100454.59;4957952;28;97375;-86
2023/05/29 02:45:16;;;;;;;7.85;4.97;;;;;;;14.89;49.29;100435.81;4958213;28;97947;-86
2023/05/29 02:47:42;;;;;;;13.52;5.00;;;;;;;14.93;49.45;100434.72;4949146;28;97363;-86
2023/05/29 02:50:08;;;;;;;13.02;4.82;;;;;;;15.01;49.33;100447.56;4959000;28;97040;-86
2023/05/29 02:52:36;;;;;;;10.20;5.20;;;;;;;14.87;49.36;100434.19;4950118;28;101489;-85
2023/05/29 02:55:03;;;;;;;8.75;4.78;;;;;;;14.99;49.05;100446.75;4950017;28;101432;-86
2023/05/29 02:57:30;;;;;;;11.82;4.85;;;;;;;14.95;49.68;100450.47;4936806;28;97327;-86
2023/05/29 02:59:55;;;;;;;14.23;4.40;;;;;;;14.86;49.39;100430.66;4938410;28;97498;-87
2023/05/29 03:02:21;;;;;;;9.27;4.72;;;;;;;14.95;49.69;100453.13;4950682;28;101042;-86
2023/05/29 03:04:50;;;;;;;7.43;4.28;;;;;;;14.71;49.76;100415.56;4966390;28;98820;-86
2023/05/29 03:07:16;;;;;;;7.63;3.97;;;;;;;14.84;49.70;100444.91;4948135;28;97345;-86
2023/05/29 03:09:42;;;;;;;9.35;4.82;;;;;;;14.90;49.61;100452.53;4953832;28;97403;-86
2023/05/29 03:12:10;;;;;;;12.18;4.75;;;;;;;14.87;49.59;100450.03;4959386;28;101269;-86
2023/05/29 03:14:36;;;;;;;9.25;5.22;;;;;;;14.74;50.11;100430.41;4953978;28;98445;-86
2023/05/29 03:17:09;;;;;;;12.88;4.68;;;;;;;14.92;49.76;100470.00;4957663;28;97014;-86
2023/05/29 03:19:34;;;;;;;13.40;4.30;;;;;;;14.89;49.60;100459.59;4967838;28;96799;-86
2023/05/29 03:22:00;;;;;;;19.45;5.65;;;;;;;14.98;49.52;100460.94;4953518;28;100455;-86
2023/05/29 03:24:27;;;;;;;17.77;5.47;;;;;;;15.07;49.70;100471.03;4936964;28;100129;-86
2023/05/29 03:26:53;;;;;;;14.10;5.45;;;;;;;14.91;49.65;100433.06;4954032;28;97366;-87
2023/05/29 03:29:19;;;;;;;14.85;4.25;;;;;;;15.14;49.63;100468.94;4937681;28;97493;-86
2023/05/29 03:31:45;;;;;;;11.52;4.57;;;;;;;15.12;49.56;100461.06;4937220;28;101721;-86
2023/05/29 03:34:13;;;;;;;11.35;5.65;;;;;;;15.14;49.31;100461.84;4953846;28;101722;-86
2023/05/29 03:36:46;;;;;;;9.32;4.60;;;;;;;15.27;48.93;100475.31;4955100;28;96844;-86
2023/05/29 03:39:12;;;;;;;13.68;5.28;;;;;;;15.36;48.83;100476.63;4937559;28;97041;-87
2023/05/29 03:41:39;;;;;;;12.25;4.75;;;;;;;15.43;48.88;100483.31;4955955;28;101726;-86
2023/05/29 03:44:05;;;;;;;8.43;4.63;;;;;;;15.46;48.61;100485.78;4937292;28;100059;-86
2023/05/29 03:46:31;;;;;;;9.00;4.32;;;;;;;15.54;48.77;100486.25;4930741;28;97317;-86
2023/05/29 03:48:59;;;;;;;11.75;5.30;;;;;;;15.51;48.79;100486.41;4950701;28;97172;-86
2023/05/29 03:51:24;;;;;;;8.93;4.43;;;;;;;15.53;48.83;100483.69;4921202;28;101814;-86
2023/05/29 03:53:52;;;;;;;21.05;4.63;;;;;;;15.65;48.71;100487.47;4937144;28;101907;-86
2023/05/29 03:56:19;;;;;;;9.55;4.38;;;;;;;15.69;48.58;100481.13;4921886;28;97500;-86
2023/05/29 03:58:45;;;;;;;14.88;5.25;;;;;;;15.79;48.52;100488.47;4936918;28;97542;-85
2023/05/29 04:01:12;;;;;;;10.27;4.68;;;;;;;15.91;48.15;100499.34;4921901;28;101765;-86
2023/05/29 04:03:38;;;;;;;13.27;4.32;;;;;;;15.90;48.13;100476.47;4918160;28;99453;-86
2023/05/29 04:06:03;;;;;;;8.18;4.18;;;;;;;16.06;47.42;100486.16;4921189;28;96953;-86
2023/05/29 04:08:29;;;;;;;19.05;4.68;;;;;;;16.01;47.53;100474.97;4917340;28;97334;-85
2023/05/29 04:10:55;;;;;;;9.27;4.50;;;;;;;16.15;47.72;100483.97;4919589;28;101010;-86
2023/05/29 04:13:21;;;;;;;8.25;4.30;;;;;;;16.19;47.37;100480.19;4953338;28;97948;-86
2023/05/29 04:15:47;;;;;;;9.90;4.32;;;;;;;16.00;47.35;100441.50;4936165;28;97093;-86
2023/05/29 04:18:14;;;;;;;12.52;4.47;;;;;;;16.42;47.19;100489.53;4937278;28;96990;-86
2023/05/29 04:20:40;;;;;;;14.07;5.03;;;;;;;16.50;47.05;100489.97;4920067;28;101817;-86
2023/05/29 04:23:06;;;;;;;10.07;4.32;;;;;;;16.46;46.77;100468.09;4933732;28;97658;-87
2023/05/29 04:25:32;;;;;;;9.38;4.25;;;;;;;16.75;46.66;100492.94;4929714;28;97253;-86
2023/05/29 04:28:01;;;;;;;14.02;6.18;;;;;;;16.83;46.23;100491.66;4921030;28;97034;-86
2023/05/29 04:30:28;;;;;;;10.90;5.47;;;;;;;16.98;46.05;100499.59;4920739;28;100582;-85
2023/05/29 04:32:54;;;;;;;16.60;4.97;;;;;;;17.07;45.57;100505.31;4925875;28;100577;-85
2023/05/29 04:35:21;;;;;;;13.10;5.15;;;;;;;17.18;45.57;100502.88;4914585;28;96860;-85
2023/05/29 04:37:57;;;;;;;16.60;5.25;;;;;;;17.35;45.28;100521.31;4937708;28;97102;-86
2023/05/29 04:40:26;;;;;;;9.73;4.50;;;;;;;17.37;45.13;100505.31;4931743;28;99817;-85
2023/05/29 04:42:53;;;;;;;9.88;4.80;;;;;;;17.57;45.12;100520.91;4936119;28;101873;-86
2023/05/29 04:45:20;;;;;;;10.80;4.43;;;;;;;17.69;45.34;100514.00;4920646;28;97345;-85
2023/05/29 04:47:46;;;;;;;12.50;4.85;;;;;;;17.72;44.94;100497.88;4942668;28;97160;-83
2023/05/29 04:50:13;;;;;;;14.18;4.50;;;;;;;17.91;45.06;100510.06;4963714;28;100129;-83
2023/05/29 04:52:40;;;;;;;10.68;5.50;;;;;;;18.04;44.93;100514.53;4955088;28;101616;-86
2023/05/29 04:55:08;;;;;;;13.85;4.70;;;;;;;17.93;44.95;100476.31;4939593;28;96789;-85
2023/05/29 04:57:34;;;;;;;15.23;5.15;;;;;;;18.23;44.42;100508.06;4954845;28;97340;-84
2023/05/29 05:00:00;;;;;;;7.97;4.22;;;;;;;18.40;44.38;100510.50;4938748;28;101362;-84
2023/05/29 05:02:26;;;;;;;12.57;4.45;;;;;;;18.45;44.43;100505.75;4947528;28;101630;-85
2023/05/29 05:04:52;;;;;;;10.98;4.95;;;;;;;18.61;43.93;100512.72;4953154;28;97274;-85
2023/05/29 05:07:18;;;;;;;18.60;4.57;;;;;;;18.70;44.07;100501.50;4952661;28;96974;-85
2023/05/29 05:09:44;;;;;;;14.15;4.85;;;;;;;18.66;44.07;100482.25;4950732;28;98314;-84
2023/05/29 05:12:17;;;;;;;14.05;4.32;;;;;;;18.90;43.77;100501.06;4953708;28;101702;-86
2023/05/29 05:14:43;;;;;;;18.80;4.70;;;;;;;19.13;43.68;100512.84;4954679;28;97125;-84
2023/05/29 05:17:08;;;;;;;16.00;5.43;;;;;;;19.09;43.56;100479.44;4951200;28;97441;-82
2023/05/29 05:19:34;;;;;;;9.00;4.38;;;;;;;19.29;43.14;100498.53;4949134;28;99676;-85
2023/05/29 05:22:00;;;;;;;11.88;5.28;;;;;;;19.34;42.82;100477.78;4948729;28;101855;-85
2023/05/29 05:24:26;;;;;;;8.98;4.05;;;;;;;19.66;42.87;100511.06;4952137;28;96882;-86
2023/05/29 05:26:52;;;;;;;12.20;4.55;;;;;;;19.83;42.39;100514.38;4934262;28;97113;-86
2023/05/29 05:29:18;;;;;;;7.95;3.92;;;;;;;20.06;41.99;100515.41;4929508;28;101310;-86
2023/05/29 05:31:44;;;;;;;11.05;4.93;;;;;;;20.26;41.99;100514.00;4954342;28;101576;-81
2023/05/29 05:34:10;;;;;;;14.20;4.72;;;;;;;20.59;41.42;100524.06;4954734;28;96813;-80
2023/05/29 05:36:36;;;;;;;9.02;3.67;;;;;;;21.02;40.76;100518.25;4936948;28;97778;-81
2023/05/29 05:39:08;;;;;;;15.45;4.18;;;;;;;21.73;39.34;100518.25;4954292;28;101643;-81
2023/05/29 05:41:35;;;;;;;15.15;4.97;;;;;;;22.64;37.90;100512.81;4953046;28;101846;-81
2023/05/29 05:44:01;;;;;;;12.18;4.40;;;;;;;23.83;35.67;100499.25;4935274;28;96854;-82
2023/05/29 05:46:49;;;;;;;14.45;4.32;;;;;;;25.59;32.38;100508.47;4947354;28;97410;-82
2023/05/29 05:49:15;;;;;;;9.77;4.82;;;;;;;27.29;30.09;100508.06;4947342;28;102009;-82
2023/05/29 05:51:42;;;;;;;8.73;4.32;;;;;;;29.68;27.36;100511.47;4952192;28;101616;-83
2023/05/29 05:54:08;;;;;;;16.77;5.00;;;;;;;33.32;23.29;100494.09;4971711;28;97138;-83
2023/05/29 05:56:35;;;;;;;17.45;4.88;;;;;;;36.49;20.14;100483.19;4952025;28;97189;-84
2023/05/29 05:59:00;;;;;;;6.80;4.60;;;;;;;39.02;18.26;100480.63;4942906;28;101499;-83
2023/05/29 06:01:27;;;;;;;17.27;4.50;;;;;;;41.15;16.60;100473.59;4947058;28;97276;-83
2023/05/29 06:03:53;;;;;;;8.05;4.57;;;;;;;42.56;15.24;100475.00;4944114;28;96797;-83
2023/05/29 06:06:19;;;;;;;11.25;4.53;;;;;;;43.75;14.39;100481.19;4935396;28;97382;-83
2023/05/29 06:08:46;;;;;;;5.60;4.10;;;;;;;44.88;14.10;100487.13;4941507;28;102413;-83
2023/05/29 06:11:12;;;;;;;9.55;4.20;;;;;;;45.74;13.21;100480.69;4953805;28;98630;-82
2023/05/29 06:13:41;;;;;;;9.20;4.18;;;;;;;46.61;12.88;100476.66;4952940;28;97241;-83
2023/05/29 06:16:17;;;;;;;7.72;4.45;;;;;;;47.40;11.97;100463.53;4954713;28;97254;-83
2023/05/29 06:18:44;;;;;;;8.77;4.57;;;;;;;48.09;11.75;100475.22;4933713;28;101717;-84
2023/05/29 06:21:11;;;;;;;13.30;4.35;;;;;;;48.64;11.23;100480.28;4932678;28;101295;-84
2023/05/29 06:23:43;;;;;;;12.93;4.00;;;;;;;49.49;10.63;100467.16;4945394;28;96847;-83
2023/05/29 06:26:11;;;;;;;7.93;3.97;;;;;;;49.83;10.59;100469.50;4967902;28;97305;-82
2023/05/29 06:28:37;;;;;;;8.25;4.07;;;;;;;50.34;10.34;100474.00;4968474;28;101289;-83
2023/05/29 06:31:02;;;;;;;8.65;4.28;;;;;;;50.91;10.26;100482.69;4950761;28;100870;-84
2023/05/29 06:33:29;;;;;;;8.85;4.30;;;;;;;51.42;10.02;100474.94;4952159;28;97305;-84
2023/05/29 06:35:55;;;;;;;10.85;4.57;;;;;;;51.99;9.06;100471.31;4952942;28;96811;-84
2023/05/29 06:38:21;;;;;;;8.55;3.63;;;;;;;52.52;9.33;100472.22;4936977;28;99481;-85
2023/05/29 06:40:47;;;;;;;5.10;3.63;;;;;;;52.90;9.46;100484.38;4934391;28;99001;-86
2023/05/29 06:43:12;;;;;;;142.93;39.55;;;;;;;53.51;8.86;100483.41;4951414;28;97207;-83
2023/05/29 06:45:40;;;;;;;27.75;11.52;;;;;;;53.90;8.82;100486.97;4937839;28;96897;-83
2023/05/29 06:48:06;;;;;;;8.95;5.22;;;;;;;54.32;8.60;100490.69;4963036;28;101338;-84
2023/05/29 06:50:33;;;;;;;11.63;4.47;;;;;;;54.81;8.54;100481.66;4928091;28;101545;-83
2023/05/29 06:53:08;;;;;;;11.15;4.82;;;;;;;55.16;8.49;100482.09;4957309;28;97274;-83
2023/05/29 06:55:49;;;;;;;7.10;4.18;;;;;;;55.58;8.14;100485.56;4930532;28;96947;-84
2023/05/29 06:58:15;;;;;;;6.80;3.53;;;;;;;55.99;8.05;100480.84;4954830;28;99566;-83
2023/05/29 07:00:41;;;;;;;5.80;5.20;;;;;;;56.49;7.85;100473.06;4970641;28;101086;-85
2023/05/29 07:03:22;;;;;;;6.22;4.47;;;;;;;56.86;7.37;100475.75;4955509;28;97704;-85
2023/05/29 07:05:47;;;;;;;9.38;3.80;;;;;;;57.26;7.17;100467.16;4936020;28;97304;-86
2023/05/29 07:08:13;;;;;;;6.97;4.03;;;;;;;57.42;7.66;100464.31;4955840;28;101260;-85
2023/05/29 07:10:39;;;;;;;6.97;3.92;;;;;;;57.98;6.77;100481.00;4934439;28;101525;-85
2023/05/29 07:13:06;;;;;;;6.63;3.00;;;;;;;58.43;6.76;100482.38;4939597;28;96835;-84
2023/05/29 07:15:33;;;;;;;7.28;3.97;;;;;;;58.76;6.72;100471.72;4932940;28;97106;-86
2023/05/29 07:17:58;;;;;;;8.97;5.20;;;;;;;59.19;6.71;100480.97;4936227;28;101956;-85
2023/05/29 07:20:26;;;;;;;9.57;8.50;;;;;;;59.50;6.22;100472.22;4936462;28;101356;-85
2023/05/29 07:22:52;;;;;;;5.00;4.03;;;;;;;59.76;6.37;100477.06;4955250;28;97472;-84
2023/05/29 07:25:18;;;;;;;10.30;3.38;;;;;;;59.93;6.17;100481.34;4956143;28;96938;-86
2023/05/29 07:27:43;;;;;;;7.65;4.93;;;;;;;60.34;6.67;100477.81;4938792;28;100936;-88
2023/05/29 07:30:10;;;;;;;5.28;3.90;;;;;;;60.57;6.90;100463.53;4956103;28;100141;-83
2023/05/29 07:32:36;;;;;;;6.68;4.25;;;;;;;61.14;5.58;100466.94;4955327;28;97011;-83
2023/05/29 07:35:02;;;;;;;4.97;4.28;;;;;;;61.31;5.85;100471.16;4972137;28;97084;-85
2023/05/29 07:37:30;;;;;;;5.57;4.80;;;;;;;61.50;6.20;100465.19;4959396;28;101600;-85
2023/05/29 07:39:56;;;;;;;5.20;4.22;;;;;;;61.89;5.19;100466.69;4939331;28;101556;-85
2023/05/29 07:42:42;;;;;;;6.95;5.80;;;;;;;62.44;5.35;100466.53;4960462;28;97716;-84
2023/05/29 07:45:08;;;;;;;7.32;5.28;;;;;;;62.84;5.98;100458.84;4948365;28;97092;-85
2023/05/29 07:47:34;;;;;;;4.80;4.40;;;;;;;62.99;5.42;100474.75;4963671;28;98104;-85
2023/05/29 07:49:59;;;;;;;9.35;5.05;;;;;;;63.30;4.78;100472.28;4947102;28;101649;-84
2023/05/29 07:52:27;;;;;;;8.10;5.20;;;;;;;63.58;4.75;100465.75;4935634;28;97451;-85
2023/05/29 07:54:54;;;;;;;6.97;4.97;;;;;;;63.66;4.74;100464.53;4951997;28;98043;-85
2023/05/29 07:57:25;;;;;;;5.88;5.35;;;;;;;63.61;5.46;100464.13;4955511;28;101334;-86
2023/05/29 07:59:53;;;;;;;7.22;4.82;;;;;;;63.81;4.84;100473.00;4954868;28;101131;-85
2023/05/29 08:02:18;;;;;;;6.60;5.50;;;;;;;64.34;4.81;100471.97;4937292;28;97309;-86
2023/05/29 08:05:03;;;;;;;7.05;5.63;;;;;;;64.61;4.65;100481.56;4957386;28;97245;-87
2023/05/29 08:07:30;;;;;;;5.35;4.93;;;;;;;64.86;4.91;100474.91;4939749;28;101273;-85
2023/05/29 08:09:56;;;;;;;6.53;5.57;;;;;;;64.55;4.44;100474.69;4943949;28;101295;-87
2023/05/29 08:12:22;;;;;;;6.43;5.88;;;;;;;64.48;4.43;100471.09;4945324;28;96951;-84
2023/05/29 08:14:49;;;;;;;7.05;5.50;;;;;;;64.46;4.71;100485.75;4941100;28;97393;-84
2023/05/29 08:17:15;;;;;;;6.73;5.60;;;;;;;63.63;4.59;100482.44;4945483;28;102128;-83
2023/05/29 08:19:40;;;;;;;6.50;5.95;;;;;;;62.83;5.17;100468.63;4948428;28;101126;-83
2023/05/29 08:22:06;;;;;;;13.25;5.20;;;;;;;61.93;5.76;100478.88;4950716;28;97216;-84
2023/05/29 08:24:31;;;;;;;10.07;5.03;;;;;;;61.67;5.16;100465.72;4950264;28;97458;-85
2023/05/29 08:26:57;;;;;;;6.88;4.45;;;;;;;61.12;6.00;100475.03;4947404;28;101374;-84
2023/05/29 08:29:23;;;;;;;5.05;4.35;;;;;;;60.41;6.68;100473.06;4937831;28;100924;-84
2023/05/29 08:31:49;;;;;;;4.28;3.75;;;;;;;58.24;6.35;100474.69;4943182;28;97394;-84
2023/05/29 08:34:15;;;;;;;7.03;3.65;;;;;;;54.37;8.52;100467.19;4964582;28;97271;-84
2023/05/29 08:36:41;;;;;;;7.57;3.33;;;;;;;51.12;11.05;100480.19;4935329;28;101327;-85
2023/05/29 08:39:07;;;;;;;5.68;3.03;;;;;;;48.92;12.32;100492.38;4954268;28;101584;-84
2023/05/29 08:41:46;;;;;;;6.25;2.78;;;;;;;46.80;13.26;100487.91;4948730;28;98353;-84
2023/05/29 08:44:14;;;;;;;4.05;2.60;;;;;;;44.32;13.15;100496.09;4953748;28;96892;-85
2023/05/29 08:46:40;;;;;;;4.90;2.17;;;;;;;43.25;14.51;100501.03;4940881;28;100915;-84
2023/05/29 08:49:08;;;;;;;6.00;2.60;;;;;;;42.22;15.40;100501.88;4933846;28;100663;-84
2023/05/29 08:51:38;;;;;;;4.40;1.95;;;;;;;40.71;14.63;100504.47;4966230;28;98100;-83
2023/05/29 08:54:03;;;;;;;5.68;2.17;;;;;;;39.53;15.77;100489.28;4935981;28;97502;-84
2023/05/29 08:56:29;;;;;;;3.22;2.00;;;;;;;38.58;16.91;100509.34;4952541;28;101352;-84
2023/05/29 08:58:55;;;;;;;6.75;2.58;;;;;;;38.00;17.57;100516.16;4950446;28;100991;-85
2023/05/29 09:01:21;;;;;;;5.32;1.90;;;;;;;37.16;16.89;100507.41;4964061;28;97254;-84
2023/05/29 09:03:47;;;;;;;3.95;2.00;;;;;;;35.68;15.97;100505.50;4960324;28;97450;-84
2023/05/29 09:06:13;;;;;;;4.18;2.05;;;;;;;33.92;18.19;100513.59;4949986;28;101818;-84
2023/05/29 09:08:38;;;;;;;5.18;2.17;;;;;;;33.33;18.41;100520.25;4935965;28;101215;-84
2023/05/29 09:11:04;;;;;;;3.30;2.10;;;;;;;33.17;19.49;100522.41;4950084;28;96988;-84
2023/05/29 09:13:31;;;;;;;6.28;2.03;;;;;;;32.74;19.34;100519.66;4940493;28;97678;-84
2023/05/29 09:15:59;;;;;;;6.00;1.98;;;;;;;32.11;19.63;100521.97;4967146;28;97499;-84
2023/05/29 09:18:29;;;;;;;7.30;1.60;;;;;;;32.39;19.98;100524.84;4952009;28;97388;-84
2023/05/29 09:20:54;;;;;;;;;;;;;;;32.33;20.72;100522.88;4932582;28;97355;-84
2023/05/29 09:23:20;;;;;;;9.05;2.38;;;;;;;32.09;20.56;100526.75;4937393;28;97358;-86
2023/05/29 09:25:53;;;;;;;4.13;2.65;;;;;;;30.97;20.74;100521.97;4965021;28;101549;-85
2023/05/29 09:28:18;;;;;;;3.17;1.95;;;;;;;31.51;20.96;100523.75;4947738;28;101365;-86
2023/05/29 09:30:46;;;;;;;5.32;1.90;;;;;;;31.65;22.03;100522.97;4946436;28;97160;-86
2023/05/29 09:33:14;;;;;;;8.77;2.47;;;;;;;30.54;20.62;100535.03;4949476;28;97541;-85
2023/05/29 09:35:40;;;;;;;7.05;2.38;;;;;;;30.77;21.82;100535.09;4933342;28;101061;-85
2023/05/29 09:38:07;;;;;;;5.43;1.88;;;;;;;30.89;21.96;100527.44;4964680;28;97227;-86
2023/05/29 09:40:35;;;;;;;7.03;2.00;;;;;;;30.87;22.35;100510.53;4954371;28;97201;-86
2023/05/29 09:43:24;;;;;;;6.55;2.40;;;;;;;30.77;22.07;100524.25;4946240;28;97326;-85
2023/05/29 09:45:50;;;;;;;10.87;2.70;;;;;;;30.59;22.34;100534.53;4964351;28;101386;-85
2023/05/29 09:48:23;;;;;;;6.75;2.42;;;;;;;30.43;22.29;100503.81;4950431;28;100814;-86
2023/05/29 09:50:49;;;;;;;6.65;2.38;;;;;;;29.76;21.55;100527.69;4967684;28;97161;-85
2023/05/29 09:53:24;;;;;;;2.75;1.92;;;;;;;28.62;21.87;100528.41;4976587;28;97441;-89
2023/05/29 09:55:50;;;;;;;6.20;2.17;;;;;;;28.83;22.95;100518.00;4947433;28;101667;-87
2023/05/29 09:58:20;;;;;;;6.55;2.15;;;;;;;28.85;23.36;100521.34;4932209;28;101796;-87
2023/05/29 10:00:47;;;;;;;5.53;2.22;;;;;;;29.04;23.23;100504.03;4952566;28;97515;-87
2023/05/29 10:03:13;;;;;;;3.90;2.05;;;;;;;28.76;24.04;100518.81;4946767;28;97517;-86
2023/05/29 10:05:39;;;;;;;8.73;2.70;;;;;;;29.20;23.93;100527.50;4948090;28;101136;-86
2023/05/29 10:08:06;;;;;;;6.68;2.67;;;;;;;29.27;24.33;100527.69;4946482;28;101943;-86
2023/05/29 10:10:33;;;;;;;6.43;2.50;;;;;;;28.91;23.93;100525.25;4933811;28;97656;-86
2023/05/29 10:13:00;;;;;;;3.97;2.35;;;;;;;28.71;24.19;100524.72;4932342;28;97304;-86
2023/05/29 10:15:30;;;;;;;3.15;2.50;;;;;;;28.41;24.12;100526.97;4957260;28;101733;-86
2023/05/29 10:18:13;;;;;;;5.00;2.17;;;;;;;28.63;24.74;100519.31;4943916;28;98176;-92
2023/05/29 10:20:41;;;;;;;12.02;2.65;;;;;;;28.30;24.08;100524.53;4956351;28;97338;-85
2023/05/29 10:23:07;;;;;;;6.32;2.60;;;;;;;28.37;24.92;100516.66;4971042;28;97752;-89
2023/05/29 10:25:35;;;;;;;11.00;2.13;;;;;;;28.20;24.92;100524.66;4947757;28;98214;-93
2023/05/29 10:28:02;;;;;;;4.70;3.10;;;;;;;28.08;25.11;100523.28;4954291;28;97775;-92
2023/05/29 10:30:38;;;;;;;7.85;2.30;;;;;;;28.06;25.57;100497.47;4938637;28;97305;-90
2023/05/29 10:33:27;;;;;;;6.05;2.28;;;;;;;28.30;25.93;100511.03;4952579;28;98007;-95
2023/05/29 10:36:10;;;;;;;7.05;2.25;;;;;;;28.10;25.08;100520.41;4959474;28;101439;-92
2023/05/29 10:38:36;;;;;;;7.00;2.85;;;;;;;27.43;25.10;100520.09;4942199;28;99889;-96
2023/05/29 10:41:26;;;;;;;10.07;3.08;;;;;;;26.76;25.50;100523.19;4936719;28;97551;-91
2023/05/29 10:44:02;;;;;;;4.13;2.28;;;;;;;27.06;26.43;100513.06;4970100;28;97120;-91
2023/05/29 10:46:48;;;;;;;3.85;2.35;;;;;;;27.23;26.52;100500.59;4953127;28;101399;-87
2023/05/29 10:49:20;;;;;;;17.52;3.47;;;;;;;27.52;26.41;100501.16;4947412;28;100844;-90
2023/05/29 10:51:48;;;;;;;6.05;2.08;;;;;;;27.48;26.47;100498.94;4933464;28;97397;-88
2023/05/29 10:54:14;;;;;;;13.90;3.03;;;;;;;27.28;25.72;100503.66;4960335;28;97427;-93
2023/05/29 10:56:41;;;;;;;5.47;2.25;;;;;;;26.96;26.39;100509.56;4933833;28;101578;-90
2023/05/29 10:59:08;;;;;;;11.20;2.95;;;;;;;27.09;26.25;100481.25;4933263;28;99899;-92
2023/05/29 11:01:35;;;;;;;4.90;2.30;;;;;;;27.46;26.75;100506.31;4949227;28;97148;-92
2023/05/29 11:04:22;;;;;;;6.78;2.28;;;;;;;27.61;26.30;100520.09;4949873;28;97356;-90
2023/05/29 11:06:48;;;;;;;5.88;2.47;;;;;;;27.49;24.80;100495.25;4957698;28;101440;-89
2023/05/29 11:09:36;;;;;;;21.48;3.53;;;;;;;27.45;25.78;100496.53;4947333;28;101129;-90
2023/05/29 11:12:10;;;;;;;7.28;2.85;;;;;;;27.31;26.14;100506.03;4932763;28;97397;-90
2023/05/29 11:14:59;;;;;;;7.13;2.47;;;;;;;27.07;25.54;100491.31;4950517;28;97448;-93
2023/05/29 11:17:29;;;;;;;6.95;2.05;;;;;;;27.38;26.79;100500.88;4949141;28;101552;-82
2023/05/29 11:19:56;;;;;;;43.70;2.92;;;;;;;27.34;26.97;100492.25;4945093;28;100257;-85
2023/05/29 11:22:27;;;;;;;7.10;2.90;;;;;;;27.39;27.24;100484.53;4928665;28;96998;-87
2023/05/29 11:24:54;;;;;;;5.57;2.45;;;;;;;27.48;27.14;100497.06;4930260;28;97308;-87